Map

Track Data

SID SEASON NUMBER BASIN SUBBASIN NAME ISO_TIME NATURE LAT LON WMO_WIND WMO_PRES WMO_AGENCY TRACK_TYPE DIST2LAND LANDFALL IFLAG USA_AGENCY USA_ATCF_ID USA_LAT USA_LON USA_RECORD USA_STATUS USA_WIND USA_PRES USA_SSHS USA_R34_NE USA_R34_SE USA_R34_SW USA_R34_NW USA_R50_NE USA_R50_SE USA_R50_SW USA_R50_NW USA_R64_NE USA_R64_SE USA_R64_SW USA_R64_NW USA_POCI USA_ROCI USA_RMW USA_EYE TOKYO_LAT TOKYO_LON TOKYO_GRADE TOKYO_WIND TOKYO_PRES TOKYO_R50_DIR TOKYO_R50_LONG TOKYO_R50_SHORT TOKYO_R30_DIR TOKYO_R30_LONG TOKYO_R30_SHORT TOKYO_LAND CMA_LAT CMA_LON CMA_CAT CMA_WIND CMA_PRES HKO_LAT HKO_LON HKO_CAT HKO_WIND HKO_PRES NEWDELHI_LAT NEWDELHI_LON NEWDELHI_GRADE NEWDELHI_WIND NEWDELHI_PRES NEWDELHI_CI NEWDELHI_DP NEWDELHI_POCI REUNION_LAT REUNION_LON REUNION_TYPE REUNION_WIND REUNION_PRES REUNION_TNUM REUNION_CI REUNION_RMW REUNION_R34_NE REUNION_R34_SE REUNION_R34_SW REUNION_R34_NW REUNION_R50_NE REUNION_R50_SE REUNION_R50_SW REUNION_R50_NW REUNION_R64_NE REUNION_R64_SE REUNION_R64_SW REUNION_R64_NW BOM_LAT BOM_LON BOM_TYPE BOM_WIND BOM_PRES BOM_TNUM BOM_CI BOM_RMW BOM_R34_NE BOM_R34_SE BOM_R34_SW BOM_R34_NW BOM_R50_NE BOM_R50_SE BOM_R50_SW BOM_R50_NW BOM_R64_NE BOM_R64_SE BOM_R64_SW BOM_R64_NW BOM_ROCI BOM_POCI BOM_EYE BOM_POS_METHOD BOM_PRES_METHOD NADI_LAT NADI_LON NADI_CAT NADI_WIND NADI_PRES WELLINGTON_LAT WELLINGTON_LON WELLINGTON_WIND WELLINGTON_PRES DS824_LAT DS824_LON DS824_STAGE DS824_WIND DS824_PRES TD9636_LAT TD9636_LON TD9636_STAGE TD9636_WIND TD9636_PRES TD9635_LAT TD9635_LON TD9635_WIND TD9635_PRES TD9635_ROCI NEUMANN_LAT NEUMANN_LON NEUMANN_CLASS NEUMANN_WIND NEUMANN_PRES MLC_LAT MLC_LON MLC_CLASS MLC_WIND MLC_PRES USA_GUST BOM_GUST BOM_GUST_PER REUNION_GUST REUNION_GUST_PER USA_SEAHGT USA_SEARAD_NE USA_SEARAD_SE USA_SEARAD_SW USA_SEARAD_NW STORM_SPEED STORM_DIR
1996122N08092 1996 34 NI BB NOT_NAMED 1996-05-01 06:00:00 NR 7.50000 91.5000 main 461 461 O_____________ jtwc_io IO011996 7.50000 91.5000 20 -1 4 344
1996122N08092 1996 34 NI BB NOT_NAMED 1996-05-01 09:00:00 NR 7.69000 91.4500 main 471 471 P_____________ IO011996 7.69000 91.4500 22 -1 4 347
1996122N08092 1996 34 NI BB NOT_NAMED 1996-05-01 12:00:00 NR 7.90000 91.4000 main 492 492 O_____________ jtwc_io IO011996 7.90000 91.4000 25 -1 5 348
1996122N08092 1996 34 NI BB NOT_NAMED 1996-05-01 15:00:00 NR 8.14250 91.3500 main 504 504 P_____________ IO011996 8.14250 91.3500 25 -1 5 349
1996122N08092 1996 34 NI BB NOT_NAMED 1996-05-01 18:00:00 NR 8.40000 91.3000 main 532 532 O_____________ jtwc_io IO011996 8.40000 91.3000 25 -1 5 348
1996122N08092 1996 34 NI BB NOT_NAMED 1996-05-01 21:00:00 NR 8.65000 91.2425 main 561 561 P_____________ IO011996 8.65000 91.2425 25 -1 5 349
1996122N08092 1996 34 NI BB NOT_NAMED 1996-05-02 00:00:00 NR 8.90000 91.2000 main 575 575 O_____________ jtwc_io IO011996 8.90000 91.2000 25 -1 5 355
1996122N08092 1996 34 NI BB NOT_NAMED 1996-05-02 03:00:00 NR 9.15000 91.2000 main 590 590 P_____________ IO011996 9.15000 91.2000 25 -1 5 2
1996122N08092 1996 34 NI BB NOT_NAMED 1996-05-02 06:00:00 NR 9.40000 91.2000 main 613 613 O_____________ jtwc_io IO011996 9.40000 91.2000 25 -1 5 353
1996122N08092 1996 34 NI BB NOT_NAMED 1996-05-02 09:00:00 NR 9.64250 91.1500 main 628 628 P_____________ IO011996 9.64250 91.1500 25 -1 5 349
1996122N08092 1996 34 NI BB NOT_NAMED 1996-05-02 12:00:00 NR 9.90000 91.1000 main 660 660 O_____________ jtwc_io IO011996 9.90000 91.1000 25 -1 6 354
1996122N08092 1996 34 NI BB NOT_NAMED 1996-05-02 15:00:00 NR 10.2000 91.1000 main 685 685 P_____________ IO011996 10.2000 91.1000 25 -1 6 1
1996122N08092 1996 34 NI BB NOT_NAMED 1996-05-02 18:00:00 NR 10.5000 91.1000 main 692 673 O_____________ jtwc_io IO011996 10.5000 91.1000 25 -1 6 355
1996122N08092 1996 34 NI BB NOT_NAMED 1996-05-02 21:00:00 NR 10.7575 91.0575 main 664 651 P_____________ IO011996 10.7575 91.0575 25 -1 5 349
1996122N08092 1996 34 NI BB NOT_NAMED 1996-05-03 00:00:00 NR 11.0000 91.0000 main 651 632 O_____________ jtwc_io IO011996 11.0000 91.0000 25 -1 5 348
1996122N08092 1996 34 NI BB NOT_NAMED 1996-05-03 03:00:00 NR 11.2425 90.9500 main 639 612 P_____________ IO011996 11.2425 90.9500 25 -1 5 349
1996122N08092 1996 34 NI BB NOT_NAMED 1996-05-03 06:00:00 NR 11.5000 90.9000 main 612 586 O_____________ jtwc_io IO011996 11.5000 90.9000 25 -1 6 351
1996122N08092 1996 34 NI BB NOT_NAMED 1996-05-03 09:00:00 NR 11.8075 90.8575 main 586 568 P_____________ IO011996 11.8075 90.8575 25 -1 6 351
1996122N08092 1996 34 NI BB NOT_NAMED 1996-05-03 12:00:00 NR 12.1000 90.8000 main 568 559 O_____________ jtwc_io IO011996 12.1000 90.8000 25 -1 5 345
1996122N08092 1996 34 NI BB NOT_NAMED 1996-05-03 15:00:00 NR 12.3150 90.7150 main 559 551 P_____________ IO011996 12.3150 90.7150 25 -1 4 334
1996122N08092 1996 34 NI BB NOT_NAMED 1996-05-03 18:00:00 NR 12.5000 90.6000 main 551 543 O_____________ jtwc_io IO011996 12.5000 90.6000 25 -1 5 327
1996122N08092 1996 34 NI BB NOT_NAMED 1996-05-03 21:00:00 NR 12.7000 90.4575 main 543 543 P_____________ IO011996 12.7000 90.4575 25 -1 5 324
1996122N08092 1996 34 NI BB NOT_NAMED 1996-05-04 00:00:00 NR 12.9000 90.3000 main 544 537 O_____________ jtwc_io IO011996 12.9000 90.3000 25 -1 5 324
1996122N08092 1996 34 NI BB NOT_NAMED 1996-05-04 03:00:00 NR 13.1075 90.1575 main 539 539 P_____________ IO011996 13.1075 90.1575 25 -1 5 324
1996122N08092 1996 34 NI BB NOT_NAMED 1996-05-04 06:00:00 NR 13.3000 90.0000 main 543 543 O_____________ jtwc_io IO011996 13.3000 90.0000 25 -1 5 315
1996122N08092 1996 34 NI BB NOT_NAMED 1996-05-04 09:00:00 NR 13.4575 89.8000 main 549 549 P_____________ IO011996 13.4575 89.8000 25 -1 5 308
1996122N08092 1996 34 NI BB NOT_NAMED 1996-05-04 12:00:00 NR 13.6000 89.6000 main 562 562 O_____________ jtwc_io IO011996 13.6000 89.6000 25 -1 5 310
1996122N08092 1996 34 NI BB NOT_NAMED 1996-05-04 15:00:00 NR 13.7500 89.4425 main 576 571 P_____________ IO011996 13.7500 89.4425 25 -1 4 316
1996122N08092 1996 34 NI BB NOT_NAMED 1996-05-04 18:00:00 NR 13.9000 89.3000 main 576 576 O_____________ jtwc_io IO011996 13.9000 89.3000 25 -1 4 316
1996122N08092 1996 34 NI BB NOT_NAMED 1996-05-04 21:00:00 NR 14.0425 89.1500 main 591 587 P_____________ IO011996 14.0425 89.1500 25 -1 4 316
1996122N08092 1996 34 NI BB NOT_NAMED 1996-05-05 00:00:00 NR 14.2000 89.0000 main 593 589 O_____________ jtwc_io IO011996 14.2000 89.0000 25 -1 5 320
1996122N08092 1996 34 NI BB NOT_NAMED 1996-05-05 03:00:00 NR 14.4000 88.8425 main 606 603 P_____________ IO011996 14.4000 88.8425 25 -1 5 324
1996122N08092 1996 34 NI BB NOT_NAMED 1996-05-05 06:00:00 NR 14.6000 88.7000 main 610 607 O_____________ jtwc_io IO011996 14.6000 88.7000 25 -1 4 325
1996122N08092 1996 34 NI BB NOT_NAMED 1996-05-05 09:00:00 NR 14.7425 88.5924 main 618 601 P_____________ IO011996 14.7425 88.5924 25 -1 4 327
1996122N08092 1996 34 NI BB NOT_NAMED 1996-05-05 12:00:00 NR 14.9000 88.5000 main 601 578 O_____________ jtwc_io IO011996 14.9000 88.5000 25 -1 4 334
1996122N08092 1996 34 NI BB NOT_NAMED 1996-05-05 15:00:00 NR 15.1350 88.3925 main 578 547 P_____________ IO011996 15.1350 88.3925 25 -1 5 339
1996122N08092 1996 34 NI BB NOT_NAMED 1996-05-05 18:00:00 NR 15.4000 88.3000 main 547 523 O_____________ jtwc_io IO011996 15.4000 88.3000 25 -1 5 343
1996122N08092 1996 34 NI BB NOT_NAMED 1996-05-05 21:00:00 NR 15.6350 88.2350 main 523 496 P_____________ IO011996 15.6350 88.2350 25 -1 5 349
1996122N08092 1996 34 NI BB NOT_NAMED 1996-05-06 00:00:00 NR 15.9000 88.2000 main 496 465 O_____________ jtwc_io IO011996 15.9000 88.2000 25 -1 6 356
1996122N08092 1996 34 NI BB NOT_NAMED 1996-05-06 03:00:00 NR 16.2350 88.1850 main 465 425 P_____________ IO011996 16.2350 88.1850 25 -1 7 0
1996122N08092 1996 34 NI BB NOT_NAMED 1996-05-06 06:00:00 NR 16.6000 88.2000 main 425 395 O_____________ jtwc_io IO011996 16.6000 88.2000 25 -1 7 2
1996122N08092 1996 34 NI BB NOT_NAMED 1996-05-06 09:00:00 NR 16.9650 88.2350 main 385 362 P_____________ IO011996 16.9650 88.2350 25 -1 7 8
1996122N08092 1996 34 NI BB NOT_NAMED 1996-05-06 12:00:00 NR 17.3000 88.3000 main 362 341 O_____________ jtwc_io IO011996 17.3000 88.3000 25 -1 6 13
1996122N08092 1996 34 NI BB NOT_NAMED 1996-05-06 15:00:00 NR 17.5650 88.3776 main 341 330 P_____________ IO011996 17.5650 88.3776 27 -1 5 21
1996122N08092 1996 34 NI BB NOT_NAMED 1996-05-06 18:00:00 NR 17.8000 88.5000 main 330 321 O_____________ jtwc_io IO011996 17.8000 88.5000 30 -1 6 31
1996122N08092 1996 34 NI BB NOT_NAMED 1996-05-06 21:00:00 NR 18.0500 88.6850 main 321 321 P_____________ IO011996 18.0500 88.6850 30 -1 6 37
1996122N08092 1996 34 NI BB NOT_NAMED 1996-05-07 00:00:00 NR 18.3000 88.9000 main 321 307 O_____________ jtwc_io IO011996 18.3000 88.9000 30 -1 7 32
1996122N08092 1996 34 NI BB NOT_NAMED 1996-05-07 03:00:00 NR 18.6279 89.0682 15 1004 newdelhi main 315 302 P___O_________ IO011996 18.5349 89.0852 30 -1 19.0000 89.0000 D 15 1004 1.00000 6 27
1996122N08092 1996 34 NI BB NOT_NAMED 1996-05-07 06:00:00 NR 18.8667 89.2000 25 1002 newdelhi main 302 269 O___O_________ jtwc_io IO011996 18.8000 89.3000 30 -1 19.0000 89.0000 D 25 1002 1.50000 7 26
1996122N08092 1996 34 NI BB NOT_NAMED 1996-05-07 09:00:00 NR 19.2535 89.3878 main 259 218 P___P_________ IO011996 19.1198 89.5553 32 -1 19.4317 89.1645 D 25 1002 10 28
1996122N08092 1996 34 NI BB NOT_NAMED 1996-05-07 12:00:00 NR 19.7500 89.7000 25 1002 newdelhi main 210 190 O___O_________ jtwc_io IO011996 19.5000 89.9000 35 0 20.0000 89.5000 D 25 1002 1.50000 11 39
1996122N08092 1996 34 NI BB NOT_NAMED 1996-05-07 15:00:00 NR 20.0921 90.1219 main 190 161 P___P_________ IO011996 19.9349 90.3551 37 0 20.2492 89.8888 D 27 1001 12 54
1996122N08092 1996 34 NI BB NOT_NAMED 1996-05-07 18:00:00 NR 20.4429 90.7286 30 1000 newdelhi main 164 80 O___O_________ jtwc_io IO011996 20.4000 90.9000 40 0 20.5000 90.5000 DD 30 1000 2.00000 15 58
1996122N08092 1996 34 NI BB NOT_NAMED 1996-05-07 21:00:00 NR 20.8797 91.4552 main 70 0 P___P_________ IO011996 20.8499 91.4778 40 0 20.9395 91.4099 DD 30 1000 16 57
1996122N08092 1996 34 NI BB NOT_NAMED 1996-05-08 00:00:00 NR 21.3400 92.1800 30 1000 newdelhi main 0 0 O___O_________ jtwc_io IO011996 21.3000 92.1000 40 0 21.5000 92.5000 DD 30 1000 2.00000 15 54
1996122N08092 1996 34 NI BB NOT_NAMED 1996-05-08 03:00:00 NR 21.7572 92.7353 main 0 0 P_____________ IO011996 21.7572 92.7353 37 0 DD 14 53
1996122N08092 1996 34 NI BB NOT_NAMED 1996-05-08 06:00:00 NR 22.2000 93.4000 main 0 0 O_____________ jtwc_io IO011996 22.2000 93.4000 35 0 15 56
1996122N08092 1996 34 NI BB NOT_NAMED 1996-05-08 09:00:00 NR 22.6148 94.0928 main 0 0 P_____________ IO011996 22.6148 94.0928 32 -1 15 58
1996122N08092 1996 34 NI BB NOT_NAMED 1996-05-08 12:00:00 NR 23.0000 94.8000 main 0 0 O_____________ jtwc_io IO011996 23.0000 94.8000 30 -1 15 60
1996122N08092 1996 34 NI BB NOT_NAMED 1996-05-08 15:00:00 NR 23.3581 95.5018 main 0 0 P_____________ IO011996 23.3581 95.5018 27 -1 15 61
1996122N08092 1996 34 NI BB NOT_NAMED 1996-05-08 18:00:00 NR 23.7000 96.2000 main 0 O_____________ jtwc_io IO011996 23.7000 96.2000 25 -1 15 62

About IBTrACS Database

This database is a web-friendly format of International Best Track Archive for Climate Stewardship (IBTrACS), a global best track data archive curated by NOAA dating back to 1842.

Updated: 2021-10-25